sensor_id;sensor_type;location;lat;lon;timestamp;temperature;humidity
12682;DHT22;6405;59.208;18.216;2023-07-31T00:00:14;13.70;99.90
12682;DHT22;6405;59.208;18.216;2023-07-31T00:02:41;13.70;99.90
12682;DHT22;6405;59.208;18.216;2023-07-31T00:05:08;13.60;99.90
12682;DHT22;6405;59.208;18.216;2023-07-31T00:07:35;13.60;99.90
12682;DHT22;6405;59.208;18.216;2023-07-31T00:10:00;13.60;99.90
12682;DHT22;6405;59.208;18.216;2023-07-31T00:12:26;13.50;99.90
12682;DHT22;6405;59.208;18.216;2023-07-31T00:14:52;13.50;99.90
12682;DHT22;6405;59.208;18.216;2023-07-31T00:17:18;13.40;99.90
12682;DHT22;6405;59.208;18.216;2023-07-31T00:19:44;13.40;99.90
12682;DHT22;6405;59.208;18.216;2023-07-31T00:22:11;13.40;99.90
12682;DHT22;6405;59.208;18.216;2023-07-31T00:24:37;13.40;99.90
12682;DHT22;6405;59.208;18.216;2023-07-31T00:27:03;13.40;99.90
12682;DHT22;6405;59.208;18.216;2023-07-31T00:29:29;13.30;99.90
12682;DHT22;6405;59.208;18.216;2023-07-31T00:31:55;13.30;99.90
12682;DHT22;6405;59.208;18.216;2023-07-31T00:34:21;13.30;99.90
12682;DHT22;6405;59.208;18.216;2023-07-31T00:36:46;13.30;99.90
12682;DHT22;6405;59.208;18.216;2023-07-31T00:39:12;13.30;99.90
12682;DHT22;6405;59.208;18.216;2023-07-31T00:41:38;13.30;99.90
12682;DHT22;6405;59.208;18.216;2023-07-31T00:44:03;13.20;99.90
12682;DHT22;6405;59.208;18.216;2023-07-31T00:46:29;13.20;99.90
12682;DHT22;6405;59.208;18.216;2023-07-31T00:48:55;13.20;99.90
12682;DHT22;6405;59.208;18.216;2023-07-31T00:51:21;13.20;99.90
12682;DHT22;6405;59.208;18.216;2023-07-31T00:53:47;13.20;99.90
12682;DHT22;6405;59.208;18.216;2023-07-31T00:56:13;13.20;99.90
12682;DHT22;6405;59.208;18.216;2023-07-31T00:58:39;13.20;99.90
12682;DHT22;6405;59.208;18.216;2023-07-31T01:01:06;13.20;99.90
12682;DHT22;6405;59.208;18.216;2023-07-31T01:03:32;13.30;99.90
12682;DHT22;6405;59.208;18.216;2023-07-31T01:06:15;13.20;99.90
12682;DHT22;6405;59.208;18.216;2023-07-31T01:09:04;13.20;99.90
12682;DHT22;6405;59.208;18.216;2023-07-31T01:11:34;13.20;99.90
12682;DHT22;6405;59.208;18.216;2023-07-31T01:14:01;13.20;99.90
12682;DHT22;6405;59.208;18.216;2023-07-31T01:16:27;13.20;99.90
12682;DHT22;6405;59.208;18.216;2023-07-31T01:18:53;13.20;99.90
12682;DHT22;6405;59.208;18.216;2023-07-31T01:22:30;13.10;99.90
12682;DHT22;6405;59.208;18.216;2023-07-31T01:25:03;13.10;99.90
12682;DHT22;6405;59.208;18.216;2023-07-31T01:27:35;13.00;99.90
12682;DHT22;6405;59.208;18.216;2023-07-31T01:30:19;13.00;99.90
12682;DHT22;6405;59.208;18.216;2023-07-31T01:32:47;13.00;99.90
12682;DHT22;6405;59.208;18.216;2023-07-31T01:35:14;13.00;99.90
12682;DHT22;6405;59.208;18.216;2023-07-31T01:37:40;13.00;99.90
12682;DHT22;6405;59.208;18.216;2023-07-31T01:40:06;13.00;99.90
12682;DHT22;6405;59.208;18.216;2023-07-31T01:42:32;13.00;99.90
12682;DHT22;6405;59.208;18.216;2023-07-31T01:44:58;13.10;99.90
12682;DHT22;6405;59.208;18.216;2023-07-31T01:47:24;13.10;99.90
12682;DHT22;6405;59.208;18.216;2023-07-31T01:49:49;13.10;99.90
12682;DHT22;6405;59.208;18.216;2023-07-31T01:52:15;13.10;99.90
12682;DHT22;6405;59.208;18.216;2023-07-31T01:54:41;13.20;99.90
12682;DHT22;6405;59.208;18.216;2023-07-31T01:57:07;13.20;99.90
12682;DHT22;6405;59.208;18.216;2023-07-31T01:59:32;13.20;99.90
12682;DHT22;6405;59.208;18.216;2023-07-31T02:01:58;13.20;99.90
12682;DHT22;6405;59.208;18.216;2023-07-31T02:04:24;13.30;99.90
12682;DHT22;6405;59.208;18.216;2023-07-31T02:06:49;13.20;99.90
12682;DHT22;6405;59.208;18.216;2023-07-31T02:09:15;13.30;99.90
12682;DHT22;6405;59.208;18.216;2023-07-31T02:11:41;13.30;99.90
12682;DHT22;6405;59.208;18.216;2023-07-31T02:14:07;13.30;99.90
12682;DHT22;6405;59.208;18.216;2023-07-31T02:16:32;13.20;99.90
12682;DHT22;6405;59.208;18.216;2023-07-31T02:18:58;13.10;99.90
12682;DHT22;6405;59.208;18.216;2023-07-31T02:21:24;13.10;99.90
12682;DHT22;6405;59.208;18.216;2023-07-31T02:23:49;13.10;99.90
12682;DHT22;6405;59.208;18.216;2023-07-31T02:26:15;13.10;99.90
12682;DHT22;6405;59.208;18.216;2023-07-31T02:28:41;13.00;99.90
12682;DHT22;6405;59.208;18.216;2023-07-31T02:31:08;13.00;99.90
12682;DHT22;6405;59.208;18.216;2023-07-31T02:33:34;13.00;99.90
12682;DHT22;6405;59.208;18.216;2023-07-31T02:36:00;12.90;99.90
12682;DHT22;6405;59.208;18.216;2023-07-31T02:38:26;12.90;99.90
12682;DHT22;6405;59.208;18.216;2023-07-31T02:40:52;12.90;99.90
12682;DHT22;6405;59.208;18.216;2023-07-31T02:43:17;12.90;99.90
12682;DHT22;6405;59.208;18.216;2023-07-31T02:45:43;12.80;99.90
12682;DHT22;6405;59.208;18.216;2023-07-31T02:48:09;12.80;99.90
12682;DHT22;6405;59.208;18.216;2023-07-31T02:50:35;12.80;99.90
12682;DHT22;6405;59.208;18.216;2023-07-31T02:53:00;12.80;99.90
12682;DHT22;6405;59.208;18.216;2023-07-31T02:55:26;12.80;99.90
12682;DHT22;6405;59.208;18.216;2023-07-31T02:57:52;12.80;99.90
12682;DHT22;6405;59.208;18.216;2023-07-31T03:00:18;12.80;99.90
12682;DHT22;6405;59.208;18.216;2023-07-31T03:02:44;12.90;99.90
12682;DHT22;6405;59.208;18.216;2023-07-31T03:05:10;12.90;99.90
12682;DHT22;6405;59.208;18.216;2023-07-31T03:07:35;12.90;99.90
12682;DHT22;6405;59.208;18.216;2023-07-31T03:10:01;12.90;99.90
12682;DHT22;6405;59.208;18.216;2023-07-31T03:12:27;12.90;99.90
12682;DHT22;6405;59.208;18.216;2023-07-31T03:14:53;12.90;99.90
12682;DHT22;6405;59.208;18.216;2023-07-31T03:17:19;13.00;99.90
12682;DHT22;6405;59.208;18.216;2023-07-31T03:19:45;13.00;99.90
12682;DHT22;6405;59.208;18.216;2023-07-31T03:22:10;13.00;99.90
12682;DHT22;6405;59.208;18.216;2023-07-31T03:24:36;13.00;99.90
12682;DHT22;6405;59.208;18.216;2023-07-31T03:27:02;13.00;99.90
12682;DHT22;6405;59.208;18.216;2023-07-31T03:29:28;13.00;99.90
12682;DHT22;6405;59.208;18.216;2023-07-31T03:31:53;13.00;99.90
12682;DHT22;6405;59.208;18.216;2023-07-31T03:34:19;13.00;99.90
12682;DHT22;6405;59.208;18.216;2023-07-31T03:36:45;13.00;99.90
12682;DHT22;6405;59.208;18.216;2023-07-31T03:39:11;13.00;99.90
12682;DHT22;6405;59.208;18.216;2023-07-31T03:41:36;13.10;99.90
12682;DHT22;6405;59.208;18.216;2023-07-31T03:44:02;13.10;99.90
12682;DHT22;6405;59.208;18.216;2023-07-31T03:46:28;13.10;99.90
12682;DHT22;6405;59.208;18.216;2023-07-31T03:48:54;13.10;99.90
12682;DHT22;6405;59.208;18.216;2023-07-31T03:51:19;13.10;99.90
12682;DHT22;6405;59.208;18.216;2023-07-31T03:53:45;13.10;99.90
12682;DHT22;6405;59.208;18.216;2023-07-31T03:56:11;13.10;99.90
12682;DHT22;6405;59.208;18.216;2023-07-31T03:58:37;13.10;99.90
12682;DHT22;6405;59.208;18.216;2023-07-31T04:01:03;13.00;99.90
12682;DHT22;6405;59.208;18.216;2023-07-31T04:03:30;13.10;99.90
12682;DHT22;6405;59.208;18.216;2023-07-31T04:05:55;13.10;99.90
12682;DHT22;6405;59.208;18.216;2023-07-31T04:08:22;13.10;99.90
12682;DHT22;6405;59.208;18.216;2023-07-31T04:10:48;13.10;99.90
12682;DHT22;6405;59.208;18.216;2023-07-31T04:13:14;13.20;99.90
12682;DHT22;6405;59.208;18.216;2023-07-31T04:15:40;13.10;99.90
12682;DHT22;6405;59.208;18.216;2023-07-31T04:18:06;13.20;99.90
12682;DHT22;6405;59.208;18.216;2023-07-31T04:20:32;13.20;99.90
12682;DHT22;6405;59.208;18.216;2023-07-31T04:22:57;13.20;99.90
12682;DHT22;6405;59.208;18.216;2023-07-31T04:25:23;13.20;99.90
12682;DHT22;6405;59.208;18.216;2023-07-31T04:27:49;13.30;99.90
12682;DHT22;6405;59.208;18.216;2023-07-31T04:30:15;13.30;99.90
12682;DHT22;6405;59.208;18.216;2023-07-31T04:32:40;13.40;99.90
12682;DHT22;6405;59.208;18.216;2023-07-31T04:35:06;13.50;99.90
12682;DHT22;6405;59.208;18.216;2023-07-31T04:37:32;13.60;99.90
12682;DHT22;6405;59.208;18.216;2023-07-31T04:39:58;13.70;99.90
12682;DHT22;6405;59.208;18.216;2023-07-31T04:42:24;13.80;99.90
12682;DHT22;6405;59.208;18.216;2023-07-31T04:44:49;13.90;99.90
12682;DHT22;6405;59.208;18.216;2023-07-31T04:47:15;14.00;99.90
12682;DHT22;6405;59.208;18.216;2023-07-31T04:49:41;14.10;99.90
12682;DHT22;6405;59.208;18.216;2023-07-31T04:52:07;14.20;99.90
12682;DHT22;6405;59.208;18.216;2023-07-31T04:54:32;14.30;99.90
12682;DHT22;6405;59.208;18.216;2023-07-31T04:56:58;14.40;99.90
12682;DHT22;6405;59.208;18.216;2023-07-31T04:59:24;14.50;99.90
12682;DHT22;6405;59.208;18.216;2023-07-31T05:01:50;14.60;99.90
12682;DHT22;6405;59.208;18.216;2023-07-31T05:04:15;14.70;99.90
12682;DHT22;6405;59.208;18.216;2023-07-31T05:06:41;14.80;99.90
12682;DHT22;6405;59.208;18.216;2023-07-31T05:09:08;14.90;99.90
12682;DHT22;6405;59.208;18.216;2023-07-31T05:11:35;14.90;99.90
12682;DHT22;6405;59.208;18.216;2023-07-31T05:14:01;15.00;99.90
12682;DHT22;6405;59.208;18.216;2023-07-31T05:16:26;15.00;99.90
12682;DHT22;6405;59.208;18.216;2023-07-31T05:18:52;15.10;99.90
12682;DHT22;6405;59.208;18.216;2023-07-31T05:21:18;15.10;99.90
12682;DHT22;6405;59.208;18.216;2023-07-31T05:23:44;15.20;99.90
12682;DHT22;6405;59.208;18.216;2023-07-31T05:26:09;15.20;99.90
12682;DHT22;6405;59.208;18.216;2023-07-31T05:28:36;15.30;99.90
12682;DHT22;6405;59.208;18.216;2023-07-31T05:31:05;15.20;99.90
12682;DHT22;6405;59.208;18.216;2023-07-31T05:33:31;15.20;99.90
12682;DHT22;6405;59.208;18.216;2023-07-31T05:35:57;15.30;99.90
12682;DHT22;6405;59.208;18.216;2023-07-31T05:38:23;15.20;99.90
12682;DHT22;6405;59.208;18.216;2023-07-31T05:40:49;15.30;99.90
12682;DHT22;6405;59.208;18.216;2023-07-31T05:43:14;15.30;99.90
12682;DHT22;6405;59.208;18.216;2023-07-31T05:45:42;15.30;99.90
12682;DHT22;6405;59.208;18.216;2023-07-31T05:48:07;15.40;99.90
12682;DHT22;6405;59.208;18.216;2023-07-31T05:50:33;15.50;99.90
12682;DHT22;6405;59.208;18.216;2023-07-31T05:52:59;15.60;99.90
12682;DHT22;6405;59.208;18.216;2023-07-31T05:55:25;15.70;99.90
12682;DHT22;6405;59.208;18.216;2023-07-31T05:57:54;15.80;99.90
12682;DHT22;6405;59.208;18.216;2023-07-31T06:00:20;15.90;99.90
12682;DHT22;6405;59.208;18.216;2023-07-31T06:02:47;15.90;99.90
12682;DHT22;6405;59.208;18.216;2023-07-31T06:05:13;16.00;99.90
12682;DHT22;6405;59.208;18.216;2023-07-31T06:07:39;16.00;99.90
12682;DHT22;6405;59.208;18.216;2023-07-31T06:10:05;16.10;99.90
12682;DHT22;6405;59.208;18.216;2023-07-31T06:12:35;16.00;99.90
12682;DHT22;6405;59.208;18.216;2023-07-31T06:15:01;15.90;99.90
12682;DHT22;6405;59.208;18.216;2023-07-31T06:17:27;15.80;99.90
12682;DHT22;6405;59.208;18.216;2023-07-31T06:19:53;15.80;99.90
12682;DHT22;6405;59.208;18.216;2023-07-31T06:22:19;15.80;99.90
12682;DHT22;6405;59.208;18.216;2023-07-31T06:24:44;15.80;99.90
12682;DHT22;6405;59.208;18.216;2023-07-31T06:27:10;15.80;99.90
12682;DHT22;6405;59.208;18.216;2023-07-31T06:29:36;15.80;99.90
12682;DHT22;6405;59.208;18.216;2023-07-31T06:32:03;15.80;99.90
12682;DHT22;6405;59.208;18.216;2023-07-31T06:34:29;15.70;99.90
12682;DHT22;6405;59.208;18.216;2023-07-31T06:36:56;15.80;99.90
12682;DHT22;6405;59.208;18.216;2023-07-31T06:39:22;15.90;99.90
12682;DHT22;6405;59.208;18.216;2023-07-31T06:41:47;15.90;99.90
12682;DHT22;6405;59.208;18.216;2023-07-31T06:44:13;15.90;99.90
12682;DHT22;6405;59.208;18.216;2023-07-31T06:46:39;16.00;99.90
12682;DHT22;6405;59.208;18.216;2023-07-31T06:49:04;16.10;99.90
12682;DHT22;6405;59.208;18.216;2023-07-31T06:51:30;16.00;99.90
12682;DHT22;6405;59.208;18.216;2023-07-31T06:53:57;16.00;99.90
12682;DHT22;6405;59.208;18.216;2023-07-31T06:56:23;15.90;99.90
12682;DHT22;6405;59.208;18.216;2023-07-31T06:58:49;15.90;99.90
12682;DHT22;6405;59.208;18.216;2023-07-31T07:01:15;15.70;99.90
12682;DHT22;6405;59.208;18.216;2023-07-31T07:03:41;15.70;99.90
12682;DHT22;6405;59.208;18.216;2023-07-31T07:06:06;15.70;99.90
12682;DHT22;6405;59.208;18.216;2023-07-31T07:08:32;15.70;99.90
12682;DHT22;6405;59.208;18.216;2023-07-31T07:10:58;15.70;99.90
12682;DHT22;6405;59.208;18.216;2023-07-31T07:13:24;15.60;99.90
12682;DHT22;6405;59.208;18.216;2023-07-31T07:15:50;15.40;99.90
12682;DHT22;6405;59.208;18.216;2023-07-31T07:18:17;15.30;99.90
12682;DHT22;6405;59.208;18.216;2023-07-31T07:20:53;15.20;99.90
12682;DHT22;6405;59.208;18.216;2023-07-31T07:23:20;15.10;99.90
12682;DHT22;6405;59.208;18.216;2023-07-31T07:25:46;15.00;99.90
12682;DHT22;6405;59.208;18.216;2023-07-31T07:28:13;15.00;99.90
12682;DHT22;6405;59.208;18.216;2023-07-31T07:30:39;14.90;99.90
12682;DHT22;6405;59.208;18.216;2023-07-31T07:33:05;14.80;99.90
12682;DHT22;6405;59.208;18.216;2023-07-31T07:35:33;14.80;99.90
12682;DHT22;6405;59.208;18.216;2023-07-31T07:37:59;14.60;99.90
12682;DHT22;6405;59.208;18.216;2023-07-31T07:40:26;14.60;99.90
12682;DHT22;6405;59.208;18.216;2023-07-31T07:42:51;14.60;99.90
12682;DHT22;6405;59.208;18.216;2023-07-31T07:45:17;14.50;99.90
12682;DHT22;6405;59.208;18.216;2023-07-31T07:47:43;14.50;99.90
12682;DHT22;6405;59.208;18.216;2023-07-31T07:50:09;14.40;99.90
12682;DHT22;6405;59.208;18.216;2023-07-31T07:52:35;14.40;99.90
12682;DHT22;6405;59.208;18.216;2023-07-31T07:55:01;14.40;99.90
12682;DHT22;6405;59.208;18.216;2023-07-31T07:57:27;14.40;99.90
12682;DHT22;6405;59.208;18.216;2023-07-31T07:59:53;14.30;99.90
12682;DHT22;6405;59.208;18.216;2023-07-31T08:02:19;14.30;99.90
12682;DHT22;6405;59.208;18.216;2023-07-31T08:04:44;14.40;99.90
12682;DHT22;6405;59.208;18.216;2023-07-31T08:07:11;14.30;99.90
12682;DHT22;6405;59.208;18.216;2023-07-31T08:09:38;14.40;99.90
12682;DHT22;6405;59.208;18.216;2023-07-31T08:12:04;14.40;99.90
12682;DHT22;6405;59.208;18.216;2023-07-31T08:14:30;14.40;99.90
12682;DHT22;6405;59.208;18.216;2023-07-31T08:16:56;14.50;99.90
12682;DHT22;6405;59.208;18.216;2023-07-31T08:19:22;14.70;99.90
12682;DHT22;6405;59.208;18.216;2023-07-31T08:21:47;14.90;99.90
12682;DHT22;6405;59.208;18.216;2023-07-31T08:24:13;15.00;99.90
12682;DHT22;6405;59.208;18.216;2023-07-31T08:26:39;15.20;99.90
12682;DHT22;6405;59.208;18.216;2023-07-31T08:29:05;15.30;99.90
12682;DHT22;6405;59.208;18.216;2023-07-31T08:31:30;15.30;99.90
12682;DHT22;6405;59.208;18.216;2023-07-31T08:33:56;15.50;99.90
12682;DHT22;6405;59.208;18.216;2023-07-31T08:36:22;15.60;99.90
12682;DHT22;6405;59.208;18.216;2023-07-31T08:38:48;15.80;99.90
12682;DHT22;6405;59.208;18.216;2023-07-31T08:41:15;16.00;99.90
12682;DHT22;6405;59.208;18.216;2023-07-31T08:43:44;16.20;99.90
12682;DHT22;6405;59.208;18.216;2023-07-31T08:46:10;16.40;99.90
12682;DHT22;6405;59.208;18.216;2023-07-31T08:48:37;16.60;99.90
12682;DHT22;6405;59.208;18.216;2023-07-31T08:51:04;16.80;99.90
12682;DHT22;6405;59.208;18.216;2023-07-31T08:53:30;17.00;99.90
12682;DHT22;6405;59.208;18.216;2023-07-31T08:55:56;17.10;99.90
12682;DHT22;6405;59.208;18.216;2023-07-31T08:58:24;17.10;99.90
12682;DHT22;6405;59.208;18.216;2023-07-31T09:00:51;17.40;99.90
12682;DHT22;6405;59.208;18.216;2023-07-31T09:03:18;17.60;99.90
12682;DHT22;6405;59.208;18.216;2023-07-31T09:05:46;17.70;99.90
12682;DHT22;6405;59.208;18.216;2023-07-31T09:08:13;17.70;99.90
12682;DHT22;6405;59.208;18.216;2023-07-31T09:10:43;17.80;99.90
12682;DHT22;6405;59.208;18.216;2023-07-31T09:13:11;17.90;99.90
12682;DHT22;6405;59.208;18.216;2023-07-31T09:15:37;17.80;99.90
12682;DHT22;6405;59.208;18.216;2023-07-31T09:18:05;17.70;99.90
12682;DHT22;6405;59.208;18.216;2023-07-31T09:20:31;17.70;99.90
12682;DHT22;6405;59.208;18.216;2023-07-31T09:23:09;17.70;99.90
12682;DHT22;6405;59.208;18.216;2023-07-31T09:25:36;17.60;99.90
12682;DHT22;6405;59.208;18.216;2023-07-31T09:28:08;17.60;99.90
12682;DHT22;6405;59.208;18.216;2023-07-31T09:30:49;17.50;99.90
12682;DHT22;6405;59.208;18.216;2023-07-31T09:33:16;17.60;99.90
12682;DHT22;6405;59.208;18.216;2023-07-31T09:35:42;17.60;99.90
12682;DHT22;6405;59.208;18.216;2023-07-31T09:38:13;17.80;99.90
12682;DHT22;6405;59.208;18.216;2023-07-31T09:40:48;17.80;99.90
12682;DHT22;6405;59.208;18.216;2023-07-31T09:43:21;18.00;99.90
12682;DHT22;6405;59.208;18.216;2023-07-31T09:45:48;18.30;99.90
12682;DHT22;6405;59.208;18.216;2023-07-31T09:48:17;18.60;99.90
12682;DHT22;6405;59.208;18.216;2023-07-31T09:50:45;18.70;99.90
12682;DHT22;6405;59.208;18.216;2023-07-31T09:53:12;18.80;99.90
12682;DHT22;6405;59.208;18.216;2023-07-31T09:55:39;18.50;99.90
12682;DHT22;6405;59.208;18.216;2023-07-31T09:58:10;18.80;99.90
12682;DHT22;6405;59.208;18.216;2023-07-31T10:00:36;18.90;99.90
12682;DHT22;6405;59.208;18.216;2023-07-31T10:03:06;19.00;99.90
12682;DHT22;6405;59.208;18.216;2023-07-31T10:05:44;18.90;99.90
12682;DHT22;6405;59.208;18.216;2023-07-31T10:08:13;18.70;99.90
12682;DHT22;6405;59.208;18.216;2023-07-31T10:10:43;18.60;99.90
12682;DHT22;6405;59.208;18.216;2023-07-31T10:13:11;18.70;99.90
12682;DHT22;6405;59.208;18.216;2023-07-31T10:15:37;18.60;99.90
12682;DHT22;6405;59.208;18.216;2023-07-31T10:18:06;18.60;99.90
12682;DHT22;6405;59.208;18.216;2023-07-31T10:20:32;18.60;99.90
12682;DHT22;6405;59.208;18.216;2023-07-31T10:22:59;18.50;99.90
12682;DHT22;6405;59.208;18.216;2023-07-31T10:25:26;18.60;99.90
12682;DHT22;6405;59.208;18.216;2023-07-31T10:27:53;18.60;99.90
12682;DHT22;6405;59.208;18.216;2023-07-31T10:30:23;18.50;99.90
12682;DHT22;6405;59.208;18.216;2023-07-31T10:32:51;18.60;99.90
12682;DHT22;6405;59.208;18.216;2023-07-31T10:35:18;18.50;99.90
12682;DHT22;6405;59.208;18.216;2023-07-31T10:37:44;18.40;99.90
12682;DHT22;6405;59.208;18.216;2023-07-31T10:40:17;18.40;99.90
12682;DHT22;6405;59.208;18.216;2023-07-31T10:43:03;18.40;99.90
12682;DHT22;6405;59.208;18.216;2023-07-31T10:45:41;18.50;99.90
12682;DHT22;6405;59.208;18.216;2023-07-31T10:48:13;18.30;99.90
12682;DHT22;6405;59.208;18.216;2023-07-31T10:50:50;18.30;99.90
12682;DHT22;6405;59.208;18.216;2023-07-31T10:53:28;18.40;99.90
12682;DHT22;6405;59.208;18.216;2023-07-31T10:55:58;18.20;99.90
12682;DHT22;6405;59.208;18.216;2023-07-31T10:58:25;18.10;99.90
12682;DHT22;6405;59.208;18.216;2023-07-31T11:00:55;18.00;99.90
12682;DHT22;6405;59.208;18.216;2023-07-31T11:03:25;18.00;99.90
12682;DHT22;6405;59.208;18.216;2023-07-31T11:06:04;17.90;99.90
12682;DHT22;6405;59.208;18.216;2023-07-31T11:08:31;17.80;99.90
12682;DHT22;6405;59.208;18.216;2023-07-31T11:11:09;17.70;99.90
12682;DHT22;6405;59.208;18.216;2023-07-31T11:13:44;17.70;99.90
12682;DHT22;6405;59.208;18.216;2023-07-31T11:16:12;17.70;99.90
12682;DHT22;6405;59.208;18.216;2023-07-31T11:18:43;17.60;99.90
12682;DHT22;6405;59.208;18.216;2023-07-31T11:21:15;17.60;99.90
12682;DHT22;6405;59.208;18.216;2023-07-31T11:23:46;17.60;99.90
12682;DHT22;6405;59.208;18.216;2023-07-31T11:26:12;17.60;99.90
12682;DHT22;6405;59.208;18.216;2023-07-31T11:28:37;17.70;99.90
12682;DHT22;6405;59.208;18.216;2023-07-31T11:31:04;17.70;99.90
12682;DHT22;6405;59.208;18.216;2023-07-31T11:33:30;17.60;99.90
12682;DHT22;6405;59.208;18.216;2023-07-31T11:35:56;17.60;99.90
12682;DHT22;6405;59.208;18.216;2023-07-31T11:38:32;17.70;99.90
12682;DHT22;6405;59.208;18.216;2023-07-31T11:41:03;17.70;99.90
12682;DHT22;6405;59.208;18.216;2023-07-31T11:43:30;17.70;99.90
12682;DHT22;6405;59.208;18.216;2023-07-31T11:45:58;17.90;99.90
12682;DHT22;6405;59.208;18.216;2023-07-31T11:48:34;17.90;99.90
12682;DHT22;6405;59.208;18.216;2023-07-31T11:51:07;18.10;99.90
12682;DHT22;6405;59.208;18.216;2023-07-31T11:53:44;18.20;99.90
12682;DHT22;6405;59.208;18.216;2023-07-31T11:56:13;18.20;99.90
12682;DHT22;6405;59.208;18.216;2023-07-31T11:58:40;18.10;99.90
12682;DHT22;6405;59.208;18.216;2023-07-31T12:01:07;17.90;99.90
12682;DHT22;6405;59.208;18.216;2023-07-31T12:03:33;18.10;99.90
12682;DHT22;6405;59.208;18.216;2023-07-31T12:06:00;18.20;99.90
12682;DHT22;6405;59.208;18.216;2023-07-31T12:08:26;18.20;99.90
12682;DHT22;6405;59.208;18.216;2023-07-31T12:10:53;18.30;99.90
12682;DHT22;6405;59.208;18.216;2023-07-31T12:13:26;18.40;99.90
12682;DHT22;6405;59.208;18.216;2023-07-31T12:15:57;18.40;99.90
12682;DHT22;6405;59.208;18.216;2023-07-31T12:18:25;18.40;99.90
12682;DHT22;6405;59.208;18.216;2023-07-31T12:20:56;18.50;99.90
12682;DHT22;6405;59.208;18.216;2023-07-31T12:23:33;18.50;99.90
12682;DHT22;6405;59.208;18.216;2023-07-31T12:31:08;18.60;99.90
12682;DHT22;6405;59.208;18.216;2023-07-31T12:33:35;18.70;99.90
12682;DHT22;6405;59.208;18.216;2023-07-31T12:36:03;18.70;99.90
12682;DHT22;6405;59.208;18.216;2023-07-31T12:38:29;18.70;99.90
12682;DHT22;6405;59.208;18.216;2023-07-31T12:40:55;18.70;99.90
12682;DHT22;6405;59.208;18.216;2023-07-31T12:43:21;18.70;99.90
12682;DHT22;6405;59.208;18.216;2023-07-31T12:45:47;18.50;99.90
12682;DHT22;6405;59.208;18.216;2023-07-31T12:48:13;18.60;99.90
12682;DHT22;6405;59.208;18.216;2023-07-31T12:50:39;18.70;99.90
12682;DHT22;6405;59.208;18.216;2023-07-31T12:53:05;18.80;99.90
12682;DHT22;6405;59.208;18.216;2023-07-31T12:55:32;18.70;99.90
12682;DHT22;6405;59.208;18.216;2023-07-31T12:58:00;18.60;99.90
12682;DHT22;6405;59.208;18.216;2023-07-31T13:00:27;18.60;99.90
12682;DHT22;6405;59.208;18.216;2023-07-31T13:02:53;18.50;99.90
12682;DHT22;6405;59.208;18.216;2023-07-31T13:05:19;18.50;99.90
12682;DHT22;6405;59.208;18.216;2023-07-31T13:07:48;18.50;99.90
12682;DHT22;6405;59.208;18.216;2023-07-31T13:10:14;18.50;99.90
12682;DHT22;6405;59.208;18.216;2023-07-31T13:12:40;18.50;99.90
12682;DHT22;6405;59.208;18.216;2023-07-31T13:15:06;18.60;99.90
12682;DHT22;6405;59.208;18.216;2023-07-31T13:17:32;18.50;99.90
12682;DHT22;6405;59.208;18.216;2023-07-31T13:19:58;18.50;99.90
12682;DHT22;6405;59.208;18.216;2023-07-31T13:22:24;18.60;99.90
12682;DHT22;6405;59.208;18.216;2023-07-31T13:24:50;18.60;99.90
12682;DHT22;6405;59.208;18.216;2023-07-31T13:27:16;18.60;99.90
12682;DHT22;6405;59.208;18.216;2023-07-31T13:29:48;18.70;99.90
12682;DHT22;6405;59.208;18.216;2023-07-31T13:32:15;18.70;99.90
12682;DHT22;6405;59.208;18.216;2023-07-31T13:34:41;18.80;99.90
12682;DHT22;6405;59.208;18.216;2023-07-31T13:37:06;18.90;99.90
12682;DHT22;6405;59.208;18.216;2023-07-31T13:39:32;18.90;99.90
12682;DHT22;6405;59.208;18.216;2023-07-31T13:42:03;18.80;99.90
12682;DHT22;6405;59.208;18.216;2023-07-31T13:44:29;18.80;99.90
12682;DHT22;6405;59.208;18.216;2023-07-31T13:46:55;18.50;99.90
12682;DHT22;6405;59.208;18.216;2023-07-31T13:49:20;18.30;99.90
12682;DHT22;6405;59.208;18.216;2023-07-31T13:51:46;18.20;99.90
12682;DHT22;6405;59.208;18.216;2023-07-31T13:54:12;18.10;99.90
12682;DHT22;6405;59.208;18.216;2023-07-31T13:56:38;18.10;99.90
12682;DHT22;6405;59.208;18.216;2023-07-31T13:59:04;18.20;99.90
12682;DHT22;6405;59.208;18.216;2023-07-31T14:01:30;18.20;99.90
12682;DHT22;6405;59.208;18.216;2023-07-31T14:03:56;18.10;99.90
12682;DHT22;6405;59.208;18.216;2023-07-31T14:06:22;18.10;99.90
12682;DHT22;6405;59.208;18.216;2023-07-31T14:08:48;18.00;99.90
12682;DHT22;6405;59.208;18.216;2023-07-31T14:11:13;17.80;99.90
12682;DHT22;6405;59.208;18.216;2023-07-31T14:13:39;17.80;99.90
12682;DHT22;6405;59.208;18.216;2023-07-31T14:16:05;17.70;99.90
12682;DHT22;6405;59.208;18.216;2023-07-31T14:18:31;17.70;99.90
12682;DHT22;6405;59.208;18.216;2023-07-31T14:20:57;17.50;99.90
12682;DHT22;6405;59.208;18.216;2023-07-31T14:23:23;17.50;99.90
12682;DHT22;6405;59.208;18.216;2023-07-31T14:25:48;17.50;99.90
12682;DHT22;6405;59.208;18.216;2023-07-31T14:28:14;17.40;99.90
12682;DHT22;6405;59.208;18.216;2023-07-31T14:30:40;17.40;99.90
12682;DHT22;6405;59.208;18.216;2023-07-31T14:33:06;17.20;99.90
12682;DHT22;6405;59.208;18.216;2023-07-31T14:35:32;17.30;99.90
12682;DHT22;6405;59.208;18.216;2023-07-31T14:37:57;17.30;99.90
12682;DHT22;6405;59.208;18.216;2023-07-31T14:40:24;17.30;99.90
12682;DHT22;6405;59.208;18.216;2023-07-31T14:42:49;17.20;99.90
12682;DHT22;6405;59.208;18.216;2023-07-31T14:45:15;17.20;99.90
12682;DHT22;6405;59.208;18.216;2023-07-31T14:47:41;17.20;99.90
12682;DHT22;6405;59.208;18.216;2023-07-31T14:50:07;17.20;99.90
12682;DHT22;6405;59.208;18.216;2023-07-31T14:52:33;17.10;99.90
12682;DHT22;6405;59.208;18.216;2023-07-31T14:54:59;17.20;99.90
12682;DHT22;6405;59.208;18.216;2023-07-31T14:57:25;17.10;99.90
12682;DHT22;6405;59.208;18.216;2023-07-31T14:59:50;17.10;99.90
12682;DHT22;6405;59.208;18.216;2023-07-31T15:02:16;16.90;99.90
12682;DHT22;6405;59.208;18.216;2023-07-31T15:04:42;17.00;99.90
12682;DHT22;6405;59.208;18.216;2023-07-31T15:07:08;16.90;99.90
12682;DHT22;6405;59.208;18.216;2023-07-31T15:09:33;17.00;99.90
12682;DHT22;6405;59.208;18.216;2023-07-31T15:11:59;17.00;99.90
12682;DHT22;6405;59.208;18.216;2023-07-31T15:14:25;17.00;99.90
12682;DHT22;6405;59.208;18.216;2023-07-31T15:16:53;17.00;99.90
12682;DHT22;6405;59.208;18.216;2023-07-31T15:19:19;17.00;99.90
12682;DHT22;6405;59.208;18.216;2023-07-31T15:21:44;16.90;99.90
12682;DHT22;6405;59.208;18.216;2023-07-31T15:24:10;16.80;99.90
12682;DHT22;6405;59.208;18.216;2023-07-31T15:26:37;16.80;99.90
12682;DHT22;6405;59.208;18.216;2023-07-31T15:29:06;16.70;99.90
12682;DHT22;6405;59.208;18.216;2023-07-31T15:31:41;16.70;99.90
12682;DHT22;6405;59.208;18.216;2023-07-31T15:34:06;16.60;99.90